Time;durP1;ratioP1;P1;durP2;ratioP2;P2;SDS_P1;SDS_P2;PMS_P1;PMS_P2;Temp;Humidity;BMP_temperature;BMP_pressure;BME280_temperature;BME280_humidity;BME280_pressure;Samples;Min_cycle;Max_cycle;Signal;HPM_P1;HPM_P2
2023/12/06 00:00:26;;;;;;;41.65;21.17;;;;;;;1.73;100.00;100842.50;4890278;29;20483;-73
2023/12/06 00:02:51;;;;;;;38.47;21.60;;;;;;;1.81;100.00;100847.25;4886994;29;20561;-72
2023/12/06 00:05:17;;;;;;;44.17;21.60;;;;;;;1.83;100.00;100847.72;4888223;29;20028;-76
2023/12/06 00:07:42;;;;;;;42.15;21.20;;;;;;;1.81;100.00;100850.00;4872672;29;20044;-76
2023/12/06 00:10:08;;;;;;;38.85;21.13;;;;;;;1.82;100.00;100853.56;4889823;29;20037;-75
2023/12/06 00:12:33;;;;;;;45.75;23.08;;;;;;;1.82;100.00;100853.56;4885232;29;20032;-73
2023/12/06 00:14:59;;;;;;;38.85;21.27;;;;;;;1.82;100.00;100851.59;4885900;29;20157;-74
2023/12/06 00:17:24;;;;;;;46.80;23.00;;;;;;;1.86;100.00;100856.50;4887194;29;20360;-74
2023/12/06 00:19:49;;;;;;;44.42;21.83;;;;;;;1.87;100.00;100853.41;4892837;29;20588;-73
2023/12/06 00:22:15;;;;;;;47.60;22.45;;;;;;;1.80;100.00;100864.91;4891132;29;20032;-74
2023/12/06 00:24:40;;;;;;;48.17;23.27;;;;;;;1.81;100.00;100860.19;4873452;29;20032;-73
2023/12/06 00:27:05;;;;;;;49.70;23.65;;;;;;;1.77;100.00;100865.56;4877463;29;20060;-74
2023/12/06 00:29:31;;;;;;;42.85;23.45;;;;;;;1.82;100.00;100862.66;4894301;29;20131;-73
2023/12/06 00:31:56;;;;;;;40.25;21.05;;;;;;;1.82;100.00;100859.09;4893866;29;20052;-74
2023/12/06 00:34:21;;;;;;;46.10;22.38;;;;;;;1.85;100.00;100863.94;4894231;29;20064;-75
2023/12/06 00:36:48;;;;;;;48.80;23.23;;;;;;;1.86;100.00;100868.34;4874261;29;20096;-77
2023/12/06 00:39:14;;;;;;;47.42;22.25;;;;;;;1.69;100.00;100871.84;4877361;29;20503;-77
2023/12/06 00:41:40;;;;;;;45.20;22.70;;;;;;;1.74;100.00;100882.75;4891426;29;20043;-77
2023/12/06 00:44:06;;;;;;;40.55;20.38;;;;;;;1.77;100.00;100871.09;4889538;29;20032;-77
2023/12/06 00:46:31;;;;;;;46.88;24.45;;;;;;;1.69;100.00;100884.84;4890637;29;20036;-77
2023/12/06 00:48:58;;;;;;;41.72;21.42;;;;;;;1.70;100.00;100887.28;4892290;29;20039;-77
2023/12/06 00:51:24;;;;;;;44.65;21.90;;;;;;;1.73;100.00;100881.13;4892788;29;20443;-77
2023/12/06 00:53:49;;;;;;;47.28;24.35;;;;;;;1.78;100.00;100885.69;4894365;29;20033;-77
2023/12/06 00:56:15;;;;;;;45.08;22.25;;;;;;;1.79;100.00;100890.91;4893557;29;20120;-76
2023/12/06 00:58:44;;;;;;;47.80;22.77;;;;;;;1.70;100.00;100894.75;4895519;29;20111;-76
2023/12/06 01:01:11;;;;;;;46.08;22.02;;;;;;;1.78;100.00;100897.53;4891494;29;20504;-76
2023/12/06 01:03:38;;;;;;;47.03;23.98;;;;;;;1.81;100.00;100888.63;4892779;29;20039;-76
2023/12/06 01:06:03;;;;;;;48.22;24.20;;;;;;;1.85;100.00;100893.50;4892921;29;20036;-76
2023/12/06 01:08:29;;;;;;;47.28;23.25;;;;;;;1.82;100.00;100900.47;4881704;29;20033;-76
2023/12/06 01:10:54;;;;;;;42.47;21.30;;;;;;;1.87;100.00;100899.53;4893324;29;20120;-76
2023/12/06 01:13:19;;;;;;;47.97;23.48;;;;;;;1.90;100.00;100899.72;4890757;29;20486;-76
2023/12/06 01:15:45;;;;;;;51.83;24.02;;;;;;;1.78;100.00;100910.53;4890844;29;20032;-76
2023/12/06 01:18:10;;;;;;;42.38;22.98;;;;;;;1.85;100.00;100910.06;4892029;29;20563;-79
2023/12/06 01:20:38;;;;;;;43.08;21.45;;;;;;;1.76;100.00;100912.78;4874410;29;20625;-78
2023/12/06 01:23:04;;;;;;;42.45;21.58;;;;;;;1.85;100.00;100915.59;4892194;29;20464;-78
2023/12/06 01:25:30;;;;;;;46.42;23.83;;;;;;;1.62;100.00;100918.38;4893868;29;20498;-78
2023/12/06 01:27:55;;;;;;;45.88;22.83;;;;;;;1.79;100.00;100917.66;4892466;29;20087;-77
2023/12/06 01:30:20;;;;;;;54.63;23.05;;;;;;;1.78;100.00;100925.13;4892853;29;20080;-77
2023/12/06 01:32:46;;;;;;;40.38;21.90;;;;;;;1.58;100.00;100917.38;4892811;29;20040;-76
2023/12/06 01:35:11;;;;;;;43.95;21.05;;;;;;;1.76;100.00;100932.09;4876358;29;20029;-76
2023/12/06 01:37:36;;;;;;;46.25;22.50;;;;;;;1.81;100.00;100924.50;4888474;29;20088;-76
2023/12/06 01:40:04;;;;;;;48.47;22.75;;;;;;;1.88;100.00;100923.22;4888665;29;20096;-79
2023/12/06 01:42:30;;;;;;;50.92;23.95;;;;;;;1.91;100.00;100928.13;4870839;29;20044;-78
2023/12/06 01:44:55;;;;;;;46.53;22.50;;;;;;;1.89;100.00;100927.63;4889280;29;20040;-78
2023/12/06 01:47:21;;;;;;;50.55;24.70;;;;;;;1.88;100.00;100925.97;4888779;29;20044;-77
2023/12/06 01:49:48;;;;;;;47.60;21.77;;;;;;;1.90;100.00;100929.22;4888263;29;20390;-78
2023/12/06 01:52:13;;;;;;;46.08;23.73;;;;;;;1.72;100.00;100931.91;4891397;29;20036;-77
2023/12/06 01:54:38;;;;;;;46.22;22.95;;;;;;;1.82;100.00;100934.41;4890642;29;20376;-77
2023/12/06 01:57:04;;;;;;;49.17;20.55;;;;;;;1.70;100.00;100936.94;4892756;29;20059;-77
2023/12/06 01:59:29;;;;;;;41.00;21.52;;;;;;;1.82;100.00;100928.09;4874921;29;20051;-78
2023/12/06 02:01:55;;;;;;;40.40;20.88;;;;;;;1.81;100.00;100932.78;4887740;29;20040;-76
2023/12/06 02:04:20;;;;;;;46.03;20.42;;;;;;;1.82;100.00;100926.13;4892860;29;20032;-78
2023/12/06 02:06:46;;;;;;;42.15;22.20;;;;;;;1.90;100.00;100934.75;4893048;29;20138;-78
2023/12/06 02:09:12;;;;;;;38.97;20.15;;;;;;;1.89;100.00;100939.47;4892760;29;20039;-77
2023/12/06 02:11:38;;;;;;;40.22;21.05;;;;;;;1.85;100.00;100945.94;4874425;29;20033;-78
2023/12/06 02:14:03;;;;;;;43.38;22.77;;;;;;;1.74;100.00;100940.69;4889662;29;20059;-78
2023/12/06 02:16:29;;;;;;;45.35;21.98;;;;;;;1.74;100.00;100950.94;4891347;29;20608;-78
2023/12/06 02:18:55;;;;;;;42.25;21.27;;;;;;;1.78;100.00;100952.72;4892120;29;20525;-77
2023/12/06 02:21:21;;;;;;;40.47;20.13;;;;;;;1.78;100.00;100949.97;4890337;29;20037;-77
2023/12/06 02:23:49;;;;;;;33.40;21.02;;;;;;;1.82;100.00;100950.16;4891328;29;20040;-77
2023/12/06 02:26:14;;;;;;;31.98;17.98;;;;;;;1.80;100.00;100953.22;4893248;29;20039;-77
2023/12/06 02:28:39;;;;;;;40.28;21.05;;;;;;;1.72;100.00;100939.38;4874959;29;20037;-77
2023/12/06 02:31:05;;;;;;;31.33;17.88;;;;;;;1.80;100.00;100955.19;4871297;29;20032;-77
2023/12/06 02:33:32;;;;;;;36.70;19.70;;;;;;;1.86;100.00;100955.88;4891269;29;20393;-77
2023/12/06 02:36:01;;;;;;;31.63;17.80;;;;;;;1.85;100.00;100962.50;4892762;29;20037;-77
2023/12/06 02:38:27;;;;;;;36.55;18.80;;;;;;;1.77;100.00;100959.41;4870058;29;20498;-77
2023/12/06 02:40:56;;;;;;;31.80;18.08;;;;;;;1.84;100.00;100967.22;4892324;29;20088;-78
2023/12/06 02:43:21;;;;;;;35.38;17.77;;;;;;;1.87;100.00;100963.81;4891024;29;20028;-76
2023/12/06 02:45:47;;;;;;;38.97;17.45;;;;;;;1.89;100.00;100972.59;4892152;29;20562;-76
2023/12/06 02:48:12;;;;;;;33.28;16.95;;;;;;;1.84;100.00;100964.47;4885548;29;20059;-77
2023/12/06 02:50:38;;;;;;;32.25;18.45;;;;;;;1.91;100.00;100959.28;4893077;29;20395;-77
2023/12/06 02:53:06;;;;;;;37.92;17.83;;;;;;;1.89;100.00;100958.78;4872150;29;20398;-76
2023/12/06 02:55:34;;;;;;;34.00;18.17;;;;;;;1.94;100.00;100961.44;4890304;29;20119;-77
2023/12/06 02:58:00;;;;;;;31.35;18.75;;;;;;;1.98;100.00;100958.81;4893893;29;20033;-80
2023/12/06 03:00:27;;;;;;;30.30;16.25;;;;;;;1.88;100.00;100962.69;4876135;29;20120;-79
2023/12/06 03:02:53;;;;;;;40.35;19.02;;;;;;;1.88;100.00;100964.63;4879298;29;20522;-78
2023/12/06 03:05:22;;;;;;;33.65;17.42;;;;;;;1.97;100.00;100959.97;4895851;29;20031;-77
2023/12/06 03:07:47;;;;;;;30.30;17.35;;;;;;;1.82;100.00;100950.16;4894567;29;20032;-79
2023/12/06 03:10:13;;;;;;;34.00;18.88;;;;;;;1.87;100.00;100949.19;4895269;29;20040;-78
2023/12/06 03:12:38;;;;;;;30.83;17.58;;;;;;;1.82;100.00;100950.97;4892995;29;20040;-77
2023/12/06 03:15:04;;;;;;;32.53;18.95;;;;;;;1.99;100.00;100966.00;4894748;29;20035;-77
2023/12/06 03:17:29;;;;;;;29.10;17.17;;;;;;;2.04;100.00;100968.59;4894587;29;20036;-76
2023/12/06 03:19:54;;;;;;;34.78;18.15;;;;;;;2.07;100.00;100959.69;4894776;29;20037;-79
2023/12/06 03:22:20;;;;;;;34.15;18.60;;;;;;;2.13;100.00;100972.25;4877024;29;20044;-79
2023/12/06 03:24:45;;;;;;;33.55;18.98;;;;;;;2.15;100.00;100963.59;4893836;29;20116;-77
2023/12/06 03:27:10;;;;;;;34.97;18.27;;;;;;;2.12;100.00;100970.59;4875975;29;20802;-78
2023/12/06 03:29:36;;;;;;;32.30;16.98;;;;;;;2.16;100.00;100973.53;4892731;29;20566;-78
2023/12/06 03:32:01;;;;;;;30.88;17.23;;;;;;;2.05;100.00;100973.00;4894696;29;20068;-77
2023/12/06 03:34:26;;;;;;;29.05;17.83;;;;;;;2.13;100.00;100977.75;4894252;29;20060;-78
2023/12/06 03:36:52;;;;;;;34.72;18.17;;;;;;;2.12;100.00;100976.13;4892644;29;20046;-77
2023/12/06 03:39:17;;;;;;;25.40;14.65;;;;;;;2.05;100.00;100986.81;4877101;29;20043;-76
2023/12/06 03:41:42;;;;;;;28.08;16.38;;;;;;;1.97;100.00;100973.78;4875576;29;20032;-76
2023/12/06 03:44:08;;;;;;;29.10;16.67;;;;;;;2.09;100.00;100973.16;4882223;29;20036;-77
2023/12/06 03:46:33;;;;;;;28.55;15.90;;;;;;;2.09;100.00;100982.28;4888132;29;20048;-76
2023/12/06 03:49:00;;;;;;;28.92;15.63;;;;;;;2.14;100.00;100986.84;4885780;29;20398;-77
2023/12/06 03:51:25;;;;;;;30.75;15.63;;;;;;;2.01;100.00;100986.63;4892462;29;20266;-77
2023/12/06 03:53:51;;;;;;;24.75;14.57;;;;;;;2.14;100.00;100990.41;4875224;29;20048;-77
2023/12/06 03:56:16;;;;;;;31.52;17.45;;;;;;;2.08;100.00;100988.94;4892145;29;20115;-76
2023/12/06 03:58:41;;;;;;;25.27;15.30;;;;;;;1.95;100.00;100987.09;4876395;29;20032;-78
2023/12/06 04:01:07;;;;;;;24.30;13.77;;;;;;;2.06;100.00;100993.94;4892096;29;20133;-77
2023/12/06 04:03:33;;;;;;;24.02;13.13;;;;;;;2.09;100.00;100993.34;4872433;29;20718;-77
2023/12/06 04:05:58;;;;;;;25.25;15.25;;;;;;;2.11;100.00;100985.53;4874848;29;20072;-77
2023/12/06 04:08:23;;;;;;;25.83;14.80;;;;;;;2.09;100.00;100982.28;4873920;29;20801;-74
2023/12/06 04:10:49;;;;;;;25.80;14.38;;;;;;;2.16;100.00;100993.69;4874125;29;20035;-75
2023/12/06 04:13:14;;;;;;;25.20;15.77;;;;;;;2.17;100.00;100992.56;4891236;29;20092;-74
2023/12/06 04:15:39;;;;;;;26.40;14.23;;;;;;;2.06;100.00;100993.94;4888511;29;20038;-73
2023/12/06 04:18:05;;;;;;;26.83;13.70;;;;;;;2.18;100.00;101001.66;4873731;29;20040;-73
2023/12/06 04:20:30;;;;;;;23.55;13.48;;;;;;;2.20;100.00;101002.97;4872338;29;20035;-73
2023/12/06 04:22:56;;;;;;;28.67;14.30;;;;;;;2.26;100.00;101002.81;4873075;29;20079;-74
2023/12/06 04:25:21;;;;;;;27.85;14.23;;;;;;;2.24;100.00;100998.44;4872866;29;20037;-73
2023/12/06 04:27:47;;;;;;;23.30;14.50;;;;;;;2.31;100.00;101005.44;4872214;29;20024;-76
2023/12/06 04:30:14;;;;;;;27.27;16.95;;;;;;;2.31;100.00;100994.38;4891318;29;20033;-76
2023/12/06 04:32:40;;;;;;;28.08;16.52;;;;;;;2.27;100.00;100998.91;4886289;29;20032;-76
2023/12/06 04:35:05;;;;;;;26.02;14.85;;;;;;;2.28;100.00;101000.53;4884841;29;20514;-75
2023/12/06 04:37:31;;;;;;;26.88;15.35;;;;;;;2.28;100.00;101008.81;4889414;29;20419;-76
2023/12/06 04:39:56;;;;;;;25.90;15.23;;;;;;;2.31;100.00;101005.44;4891381;29;20037;-76
2023/12/06 04:42:21;;;;;;;29.70;15.93;;;;;;;2.31;100.00;101016.50;4890179;29;20410;-76
2023/12/06 04:44:47;;;;;;;24.83;15.23;;;;;;;2.36;100.00;101014.41;4888385;29;20155;-76
2023/12/06 04:47:12;;;;;;;30.13;16.38;;;;;;;2.38;100.00;101025.13;4888716;29;20578;-76
2023/12/06 04:49:38;;;;;;;29.98;16.05;;;;;;;2.38;100.00;101019.59;4873240;29;20041;-76
2023/12/06 04:52:03;;;;;;;27.50;14.93;;;;;;;2.38;100.00;101017.66;4889210;29;20526;-76
2023/12/06 04:54:29;;;;;;;26.98;15.05;;;;;;;2.39;100.00;101024.00;4885069;29;20077;-76
2023/12/06 04:56:54;;;;;;;31.45;15.75;;;;;;;2.32;100.00;101020.88;4890337;29;20044;-76
2023/12/06 04:59:19;;;;;;;23.13;14.02;;;;;;;2.30;100.00;101023.13;4891065;29;20040;-76
2023/12/06 05:01:45;;;;;;;26.35;15.60;;;;;;;2.32;100.00;101020.88;4873807;29;20032;-76
2023/12/06 05:04:10;;;;;;;30.88;16.48;;;;;;;2.37;100.00;101029.03;4887295;29;20068;-76
2023/12/06 05:06:36;;;;;;;30.67;16.10;;;;;;;2.36;100.00;101025.47;4891045;29;20087;-75
2023/12/06 05:09:02;;;;;;;23.63;14.93;;;;;;;2.37;100.00;101027.06;4892842;29;20033;-77
2023/12/06 05:11:27;;;;;;;26.67;15.13;;;;;;;2.41;100.00;101027.25;4877150;29;20038;-77
2023/12/06 05:13:52;;;;;;;28.10;15.38;;;;;;;2.42;100.00;101037.16;4873343;29;20040;-76
2023/12/06 05:16:18;;;;;;;21.75;14.23;;;;;;;2.42;100.00;101031.63;4892348;29;20032;-76
2023/12/06 05:18:43;;;;;;;27.80;14.85;;;;;;;2.47;100.00;101039.81;4886304;29;20036;-76
2023/12/06 05:21:09;;;;;;;25.25;15.13;;;;;;;2.44;100.00;101035.69;4877087;29;20043;-76
2023/12/06 05:23:34;;;;;;;27.13;15.40;;;;;;;2.47;100.00;101041.72;4895053;29;20040;-76
2023/12/06 05:26:00;;;;;;;27.90;14.43;;;;;;;2.44;100.00;101038.47;4892943;29;20068;-76
2023/12/06 05:28:26;;;;;;;23.55;14.73;;;;;;;2.46;100.00;101035.38;4893830;29;20543;-75
2023/12/06 05:30:51;;;;;;;22.77;14.48;;;;;;;2.52;100.00;101039.66;4889957;29;20115;-76
2023/12/06 05:33:16;;;;;;;26.52;15.30;;;;;;;2.47;100.00;101039.81;4886034;29;20372;-76
2023/12/06 05:35:42;;;;;;;30.20;14.73;;;;;;;2.43;100.00;101036.84;4890841;29;20127;-76
2023/12/06 05:38:07;;;;;;;25.00;14.30;;;;;;;2.51;100.00;101043.56;4876424;29;21175;-76
2023/12/06 05:40:33;;;;;;;28.60;14.48;;;;;;;2.57;100.00;101041.44;4891787;29;20021;-76
2023/12/06 05:42:58;;;;;;;25.33;13.07;;;;;;;2.52;100.00;101047.13;4874222;29;20076;-76
2023/12/06 05:45:23;;;;;;;24.35;14.00;;;;;;;2.54;100.00;101047.63;4884538;29;20036;-76
2023/12/06 05:47:49;;;;;;;26.00;15.10;;;;;;;2.63;100.00;101051.22;4869857;29;20033;-76
2023/12/06 05:50:14;;;;;;;21.67;13.05;;;;;;;2.64;100.00;101052.88;4868161;29;20449;-76
2023/12/06 05:52:39;;;;;;;20.52;13.77;;;;;;;2.64;100.00;101053.66;4872372;29;20025;-76
2023/12/06 05:55:05;;;;;;;22.48;13.48;;;;;;;2.68;100.00;101059.38;4871926;29;20144;-76
2023/12/06 05:57:32;;;;;;;33.33;13.85;;;;;;;2.61;100.00;101064.53;4871675;29;20100;-76
2023/12/06 05:59:58;;;;;;;19.17;12.65;;;;;;;2.62;100.00;101061.47;4872166;29;20698;-76
2023/12/06 06:02:23;;;;;;;19.33;12.27;;;;;;;2.59;100.00;101064.88;4868257;29;20189;-76
2023/12/06 06:04:48;;;;;;;21.88;14.27;;;;;;;2.62;100.00;101055.13;4872432;29;20499;-76
2023/12/06 06:07:14;;;;;;;21.42;13.30;;;;;;;2.65;100.00;101058.06;4872593;29;20459;-76
2023/12/06 06:09:39;;;;;;;21.33;13.57;;;;;;;2.69;100.00;101065.72;4871680;29;20033;-76
2023/12/06 06:12:07;;;;;;;21.75;14.23;;;;;;;2.70;100.00;101070.09;4872699;29;20041;-76
2023/12/06 06:14:32;;;;;;;23.52;13.60;;;;;;;2.68;100.00;101069.59;4871991;29;20451;-75
2023/12/06 06:16:58;;;;;;;29.02;14.73;;;;;;;2.69;100.00;101076.78;4871689;29;20029;-76
2023/12/06 06:19:23;;;;;;;21.30;14.18;;;;;;;2.72;100.00;101076.13;4867903;29;20037;-76
2023/12/06 06:21:48;;;;;;;20.67;12.15;;;;;;;2.75;100.00;101081.03;4872711;29;20149;-76
2023/12/06 06:24:14;;;;;;;20.35;13.95;;;;;;;2.77;100.00;101078.75;4870158;29;20116;-76
2023/12/06 06:26:39;;;;;;;27.10;13.90;;;;;;;2.72;100.00;101084.41;4869066;29;20033;-75
2023/12/06 06:29:06;;;;;;;20.48;13.82;;;;;;;2.71;100.00;101091.09;4871040;29;20040;-74
2023/12/06 06:31:31;;;;;;;25.55;12.85;;;;;;;2.80;100.00;101086.41;4864648;29;20053;-74
2023/12/06 06:34:01;;;;;;;25.05;14.18;;;;;;;2.96;100.00;101090.34;4864301;29;20033;-73
2023/12/06 06:36:26;;;;;;;24.70;13.90;;;;;;;2.85;100.00;101094.56;4872179;29;20037;-73
2023/12/06 06:38:51;;;;;;;22.65;13.20;;;;;;;2.84;100.00;101098.44;4871505;29;20040;-73
2023/12/06 06:41:17;;;;;;;23.55;13.70;;;;;;;2.90;100.00;101099.13;4867781;29;20057;-74
2023/12/06 06:43:42;;;;;;;22.92;13.50;;;;;;;2.90;100.00;101099.94;4870497;29;20473;-72
2023/12/06 06:46:08;;;;;;;22.10;13.10;;;;;;;2.93;100.00;101104.84;4870574;29;20507;-74
2023/12/06 06:48:33;;;;;;;24.10;14.60;;;;;;;2.97;100.00;101103.06;4884752;29;20055;-76
2023/12/06 06:50:59;;;;;;;20.02;12.93;;;;;;;2.96;100.00;101115.25;4871499;29;20394;-75
2023/12/06 06:53:24;;;;;;;27.52;14.52;;;;;;;4.78;100.00;101115.47;4887607;29;20143;-75
2023/12/06 06:55:49;;;;;;;23.10;14.40;;;;;;;3.73;100.00;101115.72;4877003;29;20040;-75
2023/12/06 06:58:14;;;;;;;26.13;15.07;;;;;;;3.21;100.00;101121.97;4891806;29;20123;-75
2023/12/06 07:00:40;;;;;;;15.68;12.25;;;;;;;3.10;100.00;101114.28;4886232;29;20135;-74
2023/12/06 07:03:06;;;;;;;19.02;12.32;;;;;;;3.04;100.00;101117.22;4888003;29;20068;-75
2023/12/06 07:05:32;;;;;;;21.85;12.88;;;;;;;3.01;100.00;101123.38;4889195;29;20656;-74
2023/12/06 07:07:58;;;;;;;20.15;12.65;;;;;;;3.08;100.00;101127.63;4887215;29;20450;-74
2023/12/06 07:10:23;;;;;;;18.98;12.48;;;;;;;3.05;100.00;101131.84;4889157;29;20060;-73
2023/12/06 07:12:49;;;;;;;20.83;13.27;;;;;;;2.97;100.00;101136.25;4880320;29;20534;-74
2023/12/06 07:15:15;;;;;;;19.35;12.57;;;;;;;2.96;100.00;101134.59;4888180;29;20081;-74
2023/12/06 07:17:43;;;;;;;23.38;13.40;;;;;;;3.34;100.00;101142.34;4887967;29;20074;-76
2023/12/06 07:20:11;;;;;;;22.83;12.88;;;;;;;3.22;100.00;101140.19;4881452;29;20033;-73
2023/12/06 07:22:37;;;;;;;19.08;11.73;;;;;;;3.07;100.00;101148.13;4888845;29;20499;-73
2023/12/06 07:25:02;;;;;;;17.40;11.93;;;;;;;3.18;100.00;101136.47;4891717;29;20028;-74
2023/12/06 07:27:28;;;;;;;19.73;12.55;;;;;;;3.05;100.00;101140.97;4890799;29;20028;-74
2023/12/06 07:29:53;;;;;;;18.67;12.20;;;;;;;3.02;100.00;101147.16;4874261;29;20535;-72
2023/12/06 07:32:18;;;;;;;20.55;13.38;;;;;;;3.01;100.00;101153.00;4873658;29;20151;-72
2023/12/06 07:34:44;;;;;;;16.98;11.95;;;;;;;3.03;100.00;101148.75;4890488;29;20042;-72
2023/12/06 07:37:09;;;;;;;25.33;12.68;;;;;;;3.01;100.00;101144.69;4888429;29;20048;-72
2023/12/06 07:39:34;;;;;;;21.25;12.95;;;;;;;3.04;100.00;101150.41;4888054;29;20032;-74
2023/12/06 07:41:59;;;;;;;19.55;12.35;;;;;;;2.95;100.00;101157.03;4886292;29;20071;-73
2023/12/06 07:44:25;;;;;;;22.02;12.25;;;;;;;2.94;100.00;101145.16;4874734;29;20040;-73
2023/12/06 07:46:50;;;;;;;19.88;13.27;;;;;;;2.93;100.00;101160.13;4888106;29;20035;-75
2023/12/06 07:49:15;;;;;;;18.98;12.02;;;;;;;2.90;100.00;101155.22;4884082;29;20033;-76
2023/12/06 07:51:41;;;;;;;17.17;11.45;;;;;;;2.97;100.00;101166.66;4889361;29;20040;-73
2023/12/06 07:54:06;;;;;;;21.30;11.85;;;;;;;2.94;100.00;101172.00;4875873;29;20116;-73
2023/12/06 07:56:33;;;;;;;18.88;12.60;;;;;;;2.94;100.00;101174.78;4890294;29;20037;-74
2023/12/06 07:58:58;;;;;;;24.02;13.80;;;;;;;2.84;100.00;101173.91;4883389;29;20039;-74
2023/12/06 08:01:28;;;;;;;20.77;13.20;;;;;;;2.81;100.00;101168.22;4890546;29;20040;-73
2023/12/06 08:03:54;;;;;;;18.98;13.10;;;;;;;2.84;100.00;101173.91;4888226;29;20060;-73
2023/12/06 08:06:19;;;;;;;24.85;14.27;;;;;;;2.96;100.00;101175.28;4889963;29;20067;-73
2023/12/06 08:08:45;;;;;;;20.67;13.93;;;;;;;2.88;100.00;101174.09;4872817;29;20111;-74
2023/12/06 08:11:10;;;;;;;24.85;14.48;;;;;;;2.97;100.00;101172.19;4869956;29;20128;-74
2023/12/06 08:13:35;;;;;;;23.27;14.63;;;;;;;2.98;100.00;101173.81;4886253;29;20176;-75
2023/12/06 08:16:01;;;;;;;24.27;14.05;;;;;;;2.95;100.00;101177.22;4874094;29;20099;-74
2023/12/06 08:18:26;;;;;;;19.42;11.88;;;;;;;2.97;100.00;101186.03;4887478;29;20032;-73
2023/12/06 08:20:51;;;;;;;24.55;13.93;;;;;;;3.00;100.00;101185.38;4888039;29;20180;-75
2023/12/06 08:23:17;;;;;;;21.98;12.95;;;;;;;2.98;100.00;101190.41;4887715;29;20503;-75
2023/12/06 08:25:42;;;;;;;26.25;14.65;;;;;;;2.95;100.00;101190.22;4889167;29;20510;-74
2023/12/06 08:28:08;;;;;;;23.08;14.55;;;;;;;2.93;100.00;101185.03;4889482;29;20039;-74
2023/12/06 08:30:33;;;;;;;27.45;15.18;;;;;;;2.94;100.00;101183.88;4874640;29;20079;-74
2023/12/06 08:32:59;;;;;;;34.85;15.13;;;;;;;3.00;100.00;101181.78;4889313;29;20459;-73
2023/12/06 08:35:24;;;;;;;24.48;13.43;;;;;;;3.00;100.00;101181.78;4875698;29;20035;-74
2023/12/06 08:37:49;;;;;;;22.90;13.48;;;;;;;3.03;100.00;101181.13;4884537;29;20040;-75
2023/12/06 08:40:15;;;;;;;25.23;15.27;;;;;;;3.05;100.00;101182.44;4888116;29;20057;-74
2023/12/06 08:42:41;;;;;;;27.50;15.18;;;;;;;3.09;100.00;101195.66;4893741;29;20522;-74
2023/12/06 08:45:08;;;;;;;22.23;13.77;;;;;;;3.13;100.00;101202.19;4878739;29;20108;-74
2023/12/06 08:47:33;;;;;;;19.75;12.70;;;;;;;3.06;100.00;101194.34;4877078;29;20873;-75
2023/12/06 08:49:58;;;;;;;23.25;14.30;;;;;;;3.08;100.00;101199.53;4892709;29;20128;-75
2023/12/06 08:52:24;;;;;;;23.05;14.48;;;;;;;3.10;100.00;101197.28;4876335;29;20096;-75
2023/12/06 08:54:49;;;;;;;25.73;13.38;;;;;;;3.08;100.00;101200.38;4874921;29;20060;-75
2023/12/06 08:57:14;;;;;;;25.88;14.30;;;;;;;3.08;100.00;101199.53;4891414;29;20032;-76
2023/12/06 08:59:40;;;;;;;27.67;15.82;;;;;;;3.17;100.00;101208.72;4890289;29;20483;-75
2023/12/06 09:02:06;;;;;;;26.38;13.52;;;;;;;3.10;100.00;101209.16;4891396;29;20059;-75
2023/12/06 09:04:31;;;;;;;22.27;14.80;;;;;;;3.14;100.00;101209.31;4885241;29;20033;-75
2023/12/06 09:06:57;;;;;;;26.67;14.07;;;;;;;3.15;100.00;101206.25;4891650;29;20394;-75
2023/12/06 09:09:22;;;;;;;28.40;13.25;;;;;;;3.21;100.00;101215.22;4888793;29;20043;-76
2023/12/06 09:11:47;;;;;;;25.30;14.02;;;;;;;3.25;100.00;101219.00;4890804;29;20116;-79
2023/12/06 09:14:13;;;;;;;22.52;14.32;;;;;;;3.21;100.00;101216.03;4876470;29;20143;-77
2023/12/06 09:16:41;;;;;;;24.85;13.32;;;;;;;3.26;100.00;101223.38;4889484;29;20029;-76
2023/12/06 09:19:07;;;;;;;21.02;14.52;;;;;;;3.19;100.00;101223.84;4875279;29;20037;-77
2023/12/06 09:21:44;;;;;;;23.75;14.75;;;;;;;3.21;100.00;101224.34;4893172;29;20380;-76
2023/12/06 09:24:10;;;;;;;23.02;13.52;;;;;;;3.20;100.00;101231.00;4890807;29;20036;-76
2023/12/06 09:26:36;;;;;;;25.42;14.82;;;;;;;3.21;100.00;101237.38;4890745;29;20372;-76
2023/12/06 09:29:03;;;;;;;18.60;13.48;;;;;;;3.20;100.00;101238.47;4893137;29;20028;-76
2023/12/06 09:31:28;;;;;;;25.63;12.93;;;;;;;3.26;100.00;101246.31;4890772;29;20111;-77
2023/12/06 09:33:53;;;;;;;25.08;14.23;;;;;;;3.25;100.00;101244.69;4892181;29;20542;-76
2023/12/06 09:36:19;;;;;;;22.58;13.32;;;;;;;3.30;100.00;101254.00;4875182;29;20033;-76
2023/12/06 09:38:44;;;;;;;23.25;13.23;;;;;;;3.34;100.00;101247.50;4891306;29;20032;-77
2023/12/06 09:41:11;;;;;;;22.40;13.13;;;;;;;3.32;100.00;101258.06;4881500;29;20044;-77
2023/12/06 09:43:39;;;;;;;21.75;12.15;;;;;;;3.32;100.00;101254.50;4872672;29;20056;-77
2023/12/06 09:46:04;;;;;;;19.85;12.10;;;;;;;3.36;100.00;101261.81;4891429;29;20047;-77
2023/12/06 09:48:30;;;;;;;21.05;13.18;;;;;;;3.39;100.00;101255.63;4891664;29;20064;-77
2023/12/06 09:50:56;;;;;;;19.40;12.63;;;;;;;3.31;100.00;101252.84;4892908;29;20123;-77
2023/12/06 09:53:21;;;;;;;25.83;13.20;;;;;;;3.36;100.00;101261.81;4889132;29;20048;-77
2023/12/06 09:55:47;;;;;;;29.65;13.88;;;;;;;3.35;100.00;101260.22;4874379;29;20115;-77
2023/12/06 09:58:15;;;;;;;20.02;13.10;;;;;;;3.35;100.00;101248.31;4887227;29;20056;-76
2023/12/06 10:00:40;;;;;;;20.83;12.40;;;;;;;3.38;100.00;101258.75;4877165;29;20028;-76
2023/12/06 10:03:09;;;;;;;24.17;13.20;;;;;;;3.40;100.00;101260.06;4876182;29;20817;-76
2023/12/06 10:05:34;;;;;;;17.65;12.35;;;;;;;3.45;100.00;101259.09;4889298;29;20028;-75
2023/12/06 10:07:59;;;;;;;21.95;12.40;;;;;;;3.47;100.00;101267.88;4886768;29;20029;-75
2023/12/06 10:10:25;;;;;;;19.98;13.35;;;;;;;3.46;100.00;101272.63;4887112;29;20040;-76
2023/12/06 10:12:52;;;;;;;20.55;12.45;;;;;;;3.54;100.00;101272.94;4871111;29;20052;-76
2023/12/06 10:15:19;;;;;;;22.33;12.75;;;;;;;3.50;100.00;101277.50;4888898;29;20037;-76
2023/12/06 10:17:45;;;;;;;18.40;12.32;;;;;;;3.48;100.00;101280.59;4889601;29;20036;-75
2023/12/06 10:20:10;;;;;;;22.50;13.20;;;;;;;3.50;100.00;101277.50;4896654;29;20039;-75
2023/12/06 10:22:36;;;;;;;20.08;11.57;;;;;;;3.57;100.00;101277.88;4873862;29;20040;-76
2023/12/06 10:25:03;;;;;;;24.02;12.07;;;;;;;3.60;100.00;101285.50;4886957;29;20068;-75
2023/12/06 10:27:32;;;;;;;21.95;13.80;;;;;;;3.57;100.00;101277.88;4891894;29;20025;-75
2023/12/06 10:29:57;;;;;;;16.98;11.70;;;;;;;3.59;100.00;101275.59;4892415;29;20036;-75
2023/12/06 10:32:23;;;;;;;22.23;12.98;;;;;;;3.63;100.00;101282.13;4889938;29;20056;-74
2023/12/06 10:34:48;;;;;;;18.80;12.07;;;;;;;3.63;100.00;101282.13;4877182;29;20411;-75
2023/12/06 10:37:19;;;;;;;21.20;12.15;;;;;;;3.64;100.00;101272.66;4890268;29;20037;-75
2023/12/06 10:39:48;;;;;;;21.95;11.55;;;;;;;3.66;100.00;101275.94;4888660;29;20071;-74
2023/12/06 10:42:18;;;;;;;23.13;13.70;;;;;;;4.02;100.00;101274.88;4873442;29;20119;-74
2023/12/06 10:44:44;;;;;;;21.95;13.32;;;;;;;4.01;100.00;101270.47;4891627;29;20054;-74
2023/12/06 10:47:14;;;;;;;20.50;12.40;;;;;;;4.03;100.00;101260.69;4888199;29;20594;-74
2023/12/06 10:49:42;;;;;;;21.30;12.52;;;;;;;3.91;100.00;101265.25;4892514;29;20032;-74
2023/12/06 10:52:08;;;;;;;19.13;12.32;;;;;;;3.90;100.00;101269.13;4894227;29;20028;-74
2023/12/06 10:54:34;;;;;;;20.13;12.73;;;;;;;3.90;100.00;101269.13;4874390;29;20061;-76
2023/12/06 10:57:03;;;;;;;20.05;10.95;;;;;;;4.00;100.00;101266.06;4875283;29;20523;-76
2023/12/06 10:59:29;;;;;;;20.45;11.57;;;;;;;3.98;100.00;101265.56;4890085;29;20091;-76
2023/12/06 11:01:55;;;;;;;24.27;12.20;;;;;;;3.87;100.00;101257.56;4891428;29;20044;-76